Time;durP1;ratioP1;P1;durP2;ratioP2;P2;SDS_P1;SDS_P2;PMS_P1;PMS_P2;Temp;Humidity;BMP_temperature;BMP_pressure;BME280_temperature;BME280_humidity;BME280_pressure;Samples;Min_cycle;Max_cycle;Signal;HPM_P1;HPM_P2
2022/09/07 00:00:41;;;;;;;2.70;1.63;;;;;;;8.19;64.76;99362.50;5034147;28;20056;-70
2022/09/07 00:03:08;;;;;;;4.32;1.90;;;;;;;8.14;64.96;99362.69;5033293;28;20386;-70
2022/09/07 00:05:43;;;;;;;3.40;1.70;;;;;;;8.16;64.97;99355.66;5034275;28;20086;-70
2022/09/07 00:08:11;;;;;;;3.55;2.03;;;;;;;8.18;64.90;99358.94;5032885;28;20413;-69
2022/09/07 00:10:38;;;;;;;3.67;2.17;;;;;;;8.21;64.63;99355.53;5034077;28;20128;-69
2022/09/07 00:13:06;;;;;;;74.28;31.50;;;;;;;8.25;64.48;99351.00;5033630;28;20042;-69
2022/09/07 00:15:38;;;;;;;7.57;4.05;;;;;;;8.21;64.81;99350.00;5034233;28;20055;-69
2022/09/07 00:18:05;;;;;;;4.47;2.72;;;;;;;8.18;64.90;99356.16;5033528;28;20531;-69
2022/09/07 00:20:32;;;;;;;4.05;2.78;;;;;;;8.19;64.59;99351.44;5035182;28;20509;-69
2022/09/07 00:22:59;;;;;;;5.88;2.75;;;;;;;8.22;64.83;99346.09;5049404;28;20129;-68
2022/09/07 00:25:26;;;;;;;4.05;2.50;;;;;;;8.20;64.68;99348.34;5033388;28;20053;-69
2022/09/07 00:27:57;;;;;;;6.50;2.42;;;;;;;8.22;64.80;99350.78;5033492;28;20128;-70
2022/09/07 00:30:25;;;;;;;10.48;2.60;;;;;;;8.24;65.04;99343.84;5033739;28;20052;-69
2022/09/07 00:32:52;;;;;;;7.80;2.45;;;;;;;8.31;64.90;99352.47;5031977;28;20064;-69
2022/09/07 00:35:19;;;;;;;3.70;1.80;;;;;;;8.33;64.25;99347.44;5033581;28;20436;-69
2022/09/07 00:37:46;;;;;;;7.82;2.90;;;;;;;8.31;64.82;99348.88;5032048;28;20063;-69
2022/09/07 00:40:13;;;;;;;3.42;1.92;;;;;;;8.30;64.17;99342.53;5033953;28;20470;-69
2022/09/07 00:42:40;;;;;;;3.45;1.80;;;;;;;8.29;64.51;99345.63;5033576;28;20037;-69
2022/09/07 00:45:13;;;;;;;5.45;1.98;;;;;;;8.26;64.92;99341.53;5033348;28;20132;-70
2022/09/07 00:47:47;;;;;;;10.48;6.20;;;;;;;8.29;64.30;99340.09;5031843;28;20060;-70
2022/09/07 00:50:38;;;;;;;4.32;1.70;;;;;;;8.26;64.36;99336.00;5033135;28;20072;-70
2022/09/07 00:53:18;;;;;;;2.97;1.65;;;;;;;8.28;64.69;99338.44;5031713;28;20487;-69
2022/09/07 00:55:48;;;;;;;5.65;1.85;;;;;;;8.24;64.30;99338.28;5032565;28;20411;-70
2022/09/07 00:58:16;;;;;;;3.72;2.03;;;;;;;8.31;64.76;99333.09;5032564;28;20046;-69
2022/09/07 01:00:45;;;;;;;3.10;1.80;;;;;;;8.34;64.73;99326.88;5032893;28;20045;-69
2022/09/07 01:03:15;;;;;;;3.15;1.73;;;;;;;8.34;64.68;99326.06;5032843;28;20042;-70
2022/09/07 01:05:47;;;;;;;2.60;1.60;;;;;;;8.33;65.00;99319.72;5031953;28;20091;-70
2022/09/07 01:08:15;;;;;;;3.10;1.80;;;;;;;8.33;64.63;99330.81;5032821;28;20123;-69
2022/09/07 01:10:45;;;;;;;4.00;1.90;;;;;;;8.30;64.22;99328.69;5032748;28;20103;-69
2022/09/07 01:13:13;;;;;;;2.88;1.80;;;;;;;8.32;64.47;99322.81;5031863;28;20049;-69
2022/09/07 01:15:59;;;;;;;3.33;1.70;;;;;;;8.34;64.54;99320.53;5032754;28;20051;-69
2022/09/07 01:18:48;;;;;;;2.45;1.70;;;;;;;8.29;64.36;99318.72;5032666;28;20080;-70
2022/09/07 01:21:53;;;;;;;2.88;1.80;;;;;;;8.21;64.85;99315.91;5038870;28;20044;-69
2022/09/07 01:24:53;;;;;;;2.20;1.35;;;;;;;8.17;65.00;99315.72;5051303;28;20563;-72
2022/09/07 01:27:36;;;;;;;3.17;1.67;;;;;;;8.07;65.52;99326.28;5052640;28;20496;-70
2022/09/07 01:30:05;;;;;;;6.53;2.15;;;;;;;8.06;65.19;99319.97;5051356;28;20049;-70
2022/09/07 01:32:44;;;;;;;3.10;1.65;;;;;;;8.06;65.00;99314.41;5052716;28;20045;-71
2022/09/07 01:35:25;;;;;;;2.85;1.52;;;;;;;8.02;64.93;99307.88;5052915;28;20385;-70
2022/09/07 01:38:07;;;;;;;2.70;1.67;;;;;;;8.03;65.15;99308.69;5052502;28;20059;-68
2022/09/07 01:40:48;;;;;;;3.58;1.90;;;;;;;7.98;65.17;99311.59;5052242;28;20423;-71
2022/09/07 01:44:02;;;;;;;3.00;1.73;;;;;;;7.91;65.39;99302.97;5052187;28;20045;-70
2022/09/07 01:46:35;;;;;;;3.30;1.92;;;;;;;7.91;65.36;99308.50;5051155;28;20060;-70
2022/09/07 01:49:10;;;;;;;3.33;1.60;;;;;;;7.90;65.42;99301.34;5052623;28;20048;-70
2022/09/07 01:51:42;;;;;;;4.35;1.77;;;;;;;7.83;65.52;99296.25;5052435;28;20047;-70
2022/09/07 01:54:44;;;;;;;3.47;2.05;;;;;;;7.88;65.34;99295.28;5052724;28;20064;-70
2022/09/07 01:57:21;;;;;;;4.38;1.80;;;;;;;7.82;65.77;99297.41;5051587;28;20065;-70
2022/09/07 02:00:07;;;;;;;4.25;1.98;;;;;;;7.77;65.82;99286.47;5052314;28;20504;-70
2022/09/07 02:02:47;;;;;;;3.25;1.90;;;;;;;7.75;65.96;99297.03;5040924;28;20050;-71
2022/09/07 02:05:26;;;;;;;2.92;1.65;;;;;;;7.73;65.82;99299.31;5032733;28;20444;-70
2022/09/07 02:08:02;;;;;;;3.28;1.88;;;;;;;7.72;65.93;99297.66;5033704;28;20041;-69
2022/09/07 02:10:45;;;;;;;3.22;1.77;;;;;;;7.69;66.09;99295.53;5036363;28;20053;-70
2022/09/07 02:13:17;;;;;;;3.00;1.77;;;;;;;7.64;66.10;99289.34;5034653;28;20046;-69
2022/09/07 02:15:47;;;;;;;3.08;1.70;;;;;;;7.62;65.86;99288.84;5034875;28;20069;-69
2022/09/07 02:18:15;;;;;;;4.03;1.77;;;;;;;7.63;66.37;99282.16;5034440;28;20425;-68
2022/09/07 02:20:47;;;;;;;3.40;1.70;;;;;;;7.66;66.37;99285.09;5038766;28;20179;-69
2022/09/07 02:23:19;;;;;;;3.28;1.73;;;;;;;7.65;66.44;99290.97;5056250;28;20052;-70
2022/09/07 02:26:00;;;;;;;3.15;1.88;;;;;;;7.62;66.05;99286.88;5055764;28;20596;-70
2022/09/07 02:28:31;;;;;;;3.45;1.83;;;;;;;7.68;66.43;99282.84;5055225;28;20056;-69
2022/09/07 02:30:59;;;;;;;3.30;1.73;;;;;;;7.68;66.70;99291.16;5056226;28;20053;-69
2022/09/07 02:33:27;;;;;;;4.03;1.60;;;;;;;7.67;66.06;99297.81;5055741;28;20041;-69
2022/09/07 02:35:54;;;;;;;3.90;1.90;;;;;;;7.66;66.54;99290.66;5055800;28;20052;-69
2022/09/07 02:38:22;;;;;;;3.42;1.80;;;;;;;7.69;66.45;99290.00;5055412;28;20048;-69
2022/09/07 02:40:56;;;;;;;8.82;1.83;;;;;;;7.76;66.59;99286.78;5056019;28;20076;-70
2022/09/07 02:43:24;;;;;;;4.93;1.77;;;;;;;7.72;66.54;99286.59;5055321;28;20075;-69
2022/09/07 02:46:25;;;;;;;3.38;1.70;;;;;;;7.71;66.58;99290.50;5055735;28;20614;-69
2022/09/07 02:48:58;;;;;;;2.70;1.60;;;;;;;7.72;66.77;99286.59;5055961;28;20055;-69
2022/09/07 02:51:34;;;;;;;3.70;1.95;;;;;;;7.76;66.48;99282.06;5047867;28;20057;-68
2022/09/07 02:54:08;;;;;;;3.15;1.77;;;;;;;7.83;66.63;99271.34;5035684;28;20107;-69
2022/09/07 02:56:57;;;;;;;3.97;2.17;;;;;;;7.88;66.56;99270.38;5035319;28;20141;-69
2022/09/07 02:59:43;;;;;;;6.55;2.17;;;;;;;7.90;66.22;99263.34;5035432;28;20084;-69
2022/09/07 03:02:17;;;;;;;3.92;1.80;;;;;;;7.90;66.29;99260.59;5033816;28;20084;-70
2022/09/07 03:05:00;;;;;;;3.50;1.98;;;;;;;7.85;65.98;99258.00;5035797;28;20049;-70
2022/09/07 03:07:37;;;;;;;3.95;1.80;;;;;;;7.86;66.35;99265.16;5035101;28;20520;-69
2022/09/07 03:10:12;;;;;;;;;;;;;;;7.78;66.39;99268.69;5035451;28;20052;-70
2022/09/07 03:12:44;;;;;;;3.70;1.83;;;;;;;7.86;66.40;99267.91;5033794;28;19964;-69
2022/09/07 03:15:20;;;;;;;3.03;2.00;;;;;;;7.95;66.13;99268.75;5035556;28;20509;-68
2022/09/07 03:17:48;;;;;;;4.07;2.50;;;;;;;7.96;65.84;99270.38;5034888;28;20057;-70
2022/09/07 03:20:17;;;;;;;3.42;1.92;;;;;;;8.00;66.07;99268.63;5032592;28;20420;-69
2022/09/07 03:22:46;;;;;;;8.18;2.38;;;;;;;8.03;65.95;99275.47;5054075;28;20045;-69
2022/09/07 03:25:14;;;;;;;4.00;1.92;;;;;;;8.06;66.22;99274.81;5053437;28;20508;-71
2022/09/07 03:27:41;;;;;;;2.92;1.77;;;;;;;8.09;65.87;99257.53;5053618;28;20041;-69
2022/09/07 03:30:10;;;;;;;4.18;1.98;;;;;;;8.13;66.02;99259.34;5054984;28;20045;-70
2022/09/07 03:32:38;;;;;;;3.78;1.58;;;;;;;8.12;66.10;99249.41;5054427;28;20072;-70
2022/09/07 03:35:06;;;;;;;3.28;1.90;;;;;;;8.14;65.79;99244.34;5053659;28;20048;-69
2022/09/07 03:37:37;;;;;;;5.25;2.20;;;;;;;8.18;66.02;99250.88;5054423;28;20063;-69
2022/09/07 03:40:07;;;;;;;4.82;2.00;;;;;;;8.13;66.41;99248.25;5052241;28;20055;-70
2022/09/07 03:42:37;;;;;;;4.72;1.98;;;;;;;8.04;66.11;99250.19;5034313;28;20592;-69
2022/09/07 03:45:05;;;;;;;3.28;1.88;;;;;;;8.02;66.91;99258.00;5034702;28;20494;-72
2022/09/07 03:47:36;;;;;;;4.50;2.13;;;;;;;8.06;66.40;99247.09;5034663;28;20049;-70
2022/09/07 03:50:04;;;;;;;3.15;1.75;;;;;;;8.07;66.67;99249.56;5034218;28;20069;-69
2022/09/07 03:52:33;;;;;;;4.95;1.88;;;;;;;8.11;66.55;99256.06;5033947;28;20038;-69
2022/09/07 03:55:00;;;;;;;5.15;2.20;;;;;;;8.14;66.52;99252.66;5034013;28;20061;-69
2022/09/07 03:57:29;;;;;;;3.08;1.90;;;;;;;8.11;66.83;99242.22;5034547;28;20045;-69
2022/09/07 03:59:56;;;;;;;3.03;2.00;;;;;;;8.16;66.44;99241.25;5034514;28;20540;-69
2022/09/07 04:02:23;;;;;;;3.25;1.98;;;;;;;8.17;66.35;99243.69;5034033;28;20069;-69
2022/09/07 04:04:50;;;;;;;3.45;1.80;;;;;;;8.17;66.71;99237.34;5034137;28;20051;-71
2022/09/07 04:07:16;;;;;;;4.40;1.80;;;;;;;8.11;66.76;99233.91;5034434;28;20055;-70
2022/09/07 04:09:43;;;;;;;3.60;1.88;;;;;;;8.10;67.07;99242.53;5034170;28;20057;-70
2022/09/07 04:12:10;;;;;;;6.60;2.00;;;;;;;8.07;67.21;99235.72;5033548;28;20509;-68
2022/09/07 04:14:37;;;;;;;3.83;1.98;;;;;;;8.09;66.74;99230.66;5034320;28;20045;-69
2022/09/07 04:17:04;;;;;;;3.45;2.08;;;;;;;8.08;66.85;99240.09;5033683;28;20049;-70
2022/09/07 04:19:31;;;;;;;4.07;1.90;;;;;;;8.07;66.91;99244.00;5037163;28;20048;-71
2022/09/07 04:21:58;;;;;;;5.60;1.92;;;;;;;8.04;66.95;99233.59;5040671;28;20049;-70
2022/09/07 04:24:25;;;;;;;3.17;1.90;;;;;;;8.07;66.50;99238.47;5033799;28;20045;-69
2022/09/07 04:26:52;;;;;;;4.85;1.90;;;;;;;8.13;66.52;99231.63;5033750;28;20072;-69
2022/09/07 04:29:19;;;;;;;3.55;1.95;;;;;;;8.20;66.55;99234.72;5033983;28;20076;-70
2022/09/07 04:31:46;;;;;;;3.40;2.03;;;;;;;8.26;66.21;99233.47;5033568;28;20504;-69
2022/09/07 04:34:13;;;;;;;4.82;2.90;;;;;;;8.29;66.43;99229.25;5033977;28;20048;-69
2022/09/07 04:36:40;;;;;;;4.32;2.30;;;;;;;8.23;66.30;99228.56;5031982;28;20060;-69
2022/09/07 04:39:08;;;;;;;4.97;2.53;;;;;;;8.21;66.25;99225.31;5033195;28;20045;-69
2022/09/07 04:41:35;;;;;;;3.30;1.98;;;;;;;8.28;66.17;99227.59;5033799;28;20099;-69
2022/09/07 04:44:03;;;;;;;6.07;1.92;;;;;;;8.37;66.19;99232.00;5033279;28;20051;-69
2022/09/07 04:46:35;;;;;;;3.38;1.95;;;;;;;8.53;66.02;99224.81;5033270;28;20053;-69
2022/09/07 04:49:06;;;;;;;5.07;2.10;;;;;;;8.77;64.98;99221.56;5033067;28;20053;-70
2022/09/07 04:51:34;;;;;;;4.10;2.15;;;;;;;8.98;64.66;99215.00;5033261;28;20055;-70
2022/09/07 04:54:02;;;;;;;3.90;2.28;;;;;;;9.11;64.12;99208.44;5032984;28;20132;-68
2022/09/07 04:56:30;;;;;;;3.28;1.98;;;;;;;9.17;64.73;99212.66;5032886;28;20053;-69
2022/09/07 04:59:00;;;;;;;5.55;2.15;;;;;;;9.32;64.18;99217.66;5032776;28;20463;-69
2022/09/07 05:01:27;;;;;;;3.15;2.20;;;;;;;9.59;63.02;99207.25;5033188;28;20141;-69
2022/09/07 05:03:54;;;;;;;2.90;1.77;;;;;;;9.87;62.85;99213.97;5032848;28;20052;-68
2022/09/07 05:06:22;;;;;;;4.55;2.38;;;;;;;10.03;62.36;99217.75;5037370;28;20055;-69
2022/09/07 05:08:52;;;;;;;5.15;1.70;;;;;;;10.17;61.56;99223.91;5053127;28;20048;-70
2022/09/07 05:11:20;;;;;;;4.35;2.08;;;;;;;10.27;61.75;99220.75;5039024;28;20045;-70
2022/09/07 05:13:58;;;;;;;2.97;1.85;;;;;;;10.36;60.92;99215.94;5031254;28;20064;-70
2022/09/07 05:16:26;;;;;;;3.58;1.92;;;;;;;10.36;60.82;99221.50;5032536;28;20166;-69
2022/09/07 05:18:59;;;;;;;3.47;2.00;;;;;;;10.33;60.65;99219.41;5032592;28;20524;-69
2022/09/07 05:21:30;;;;;;;3.65;2.20;;;;;;;10.43;60.68;99217.03;5052239;28;20041;-69
2022/09/07 05:23:58;;;;;;;3.28;1.83;;;;;;;10.56;60.85;99223.44;5053110;28;20049;-69
2022/09/07 05:26:28;;;;;;;4.32;2.22;;;;;;;10.62;60.56;99224.88;5052575;28;20504;-69
2022/09/07 05:28:57;;;;;;;7.25;1.95;;;;;;;10.61;60.32;99218.50;5053052;28;20052;-70
2022/09/07 05:31:44;;;;;;;8.10;2.40;;;;;;;10.51;60.22;99220.91;5052296;28;20064;-69
2022/09/07 05:34:19;;;;;;;5.18;2.15;;;;;;;10.39;60.33;99212.50;5052272;28;20055;-69
2022/09/07 05:37:01;;;;;;;4.10;1.95;;;;;;;10.50;60.22;99219.25;5052561;28;20049;-69
2022/09/07 05:39:29;;;;;;;8.75;1.98;;;;;;;10.55;59.83;99217.09;5052518;28;20052;-69
2022/09/07 05:41:56;;;;;;;3.90;1.90;;;;;;;10.67;59.67;99216.31;5051760;28;20049;-71
2022/09/07 05:44:23;;;;;;;4.53;2.35;;;;;;;10.69;59.72;99205.69;5047606;28;20038;-69
2022/09/07 05:47:10;;;;;;;9.02;2.15;;;;;;;10.75;59.04;99184.84;5037342;28;20053;-68
2022/09/07 05:49:37;;;;;;;5.13;2.00;;;;;;;10.92;58.50;99190.22;5041470;28;20127;-70
2022/09/07 05:52:04;;;;;;;4.97;1.90;;;;;;;11.15;58.54;99188.66;5033708;28;20045;-69
2022/09/07 05:54:31;;;;;;;7.68;2.15;;;;;;;11.33;57.87;99203.16;5034039;28;20482;-69
2022/09/07 05:56:57;;;;;;;4.43;1.95;;;;;;;11.27;57.83;99202.59;5044229;28;20041;-69
2022/09/07 05:59:24;;;;;;;3.70;2.03;;;;;;;11.24;58.22;99203.28;5032171;28;20049;-69
2022/09/07 06:01:51;;;;;;;8.43;2.50;;;;;;;11.27;57.82;99207.34;5037200;28;20472;-69
2022/09/07 06:04:18;;;;;;;9.85;2.30;;;;;;;11.09;58.29;99202.00;5031270;28;20463;-71
2022/09/07 06:06:45;;;;;;;4.78;2.40;;;;;;;10.99;58.61;99202.41;5034303;28;20051;-71
2022/09/07 06:09:33;;;;;;;8.32;2.58;;;;;;;12.02;56.11;99210.31;5041470;28;20416;-68
2022/09/07 06:12:03;;;;;;;4.30;2.30;;;;;;;13.34;53.20;99205.44;5044629;28;20141;-69
2022/09/07 06:14:31;;;;;;;4.10;2.30;;;;;;;13.72;52.10;99205.63;5032198;28;20072;-70
2022/09/07 06:16:59;;;;;;;4.97;3.08;;;;;;;14.40;51.22;99207.72;5033537;28;20057;-70
2022/09/07 06:19:26;;;;;;;7.10;2.30;;;;;;;15.13;49.76;99207.63;5032303;28;20092;-69
2022/09/07 06:21:53;;;;;;;3.33;2.13;;;;;;;15.56;47.92;99203.66;5037286;28;20048;-68
2022/09/07 06:24:20;;;;;;;4.15;2.13;;;;;;;15.81;47.16;99200.09;5049103;28;20057;-68
2022/09/07 06:26:47;;;;;;;3.40;2.30;;;;;;;15.34;47.48;99205.22;5037695;28;20500;-69
2022/09/07 06:29:14;;;;;;;2.95;1.75;;;;;;;14.94;47.61;99210.44;5052103;28;20144;-69
2022/09/07 06:31:41;;;;;;;6.05;2.28;;;;;;;15.56;47.04;99201.66;5047271;28;20056;-69
2022/09/07 06:34:27;;;;;;;3.47;1.85;;;;;;;16.14;45.41;99191.78;5031792;28;20074;-69
2022/09/07 06:36:55;;;;;;;6.18;2.03;;;;;;;16.30;45.25;99186.03;5037685;28;20045;-69
2022/09/07 06:39:22;;;;;;;5.25;2.13;;;;;;;16.43;44.82;99181.78;5043586;28;20049;-70
2022/09/07 06:41:49;;;;;;;6.30;2.15;;;;;;;16.19;45.48;99188.69;5032838;28;20052;-70
2022/09/07 06:44:24;;;;;;;3.15;1.80;;;;;;;16.04;45.97;99192.44;5046258;28;20037;-69
2022/09/07 06:46:50;;;;;;;5.93;2.30;;;;;;;15.51;46.16;99187.94;5031871;28;20497;-69
2022/09/07 06:49:33;;;;;;;2.90;1.67;;;;;;;14.94;47.13;99192.81;5045388;28;20079;-69
2022/09/07 06:52:00;;;;;;;3.30;1.77;;;;;;;14.68;47.60;99187.91;5032811;28;20079;-70
2022/09/07 06:54:26;;;;;;;3.58;1.92;;;;;;;14.39;47.74;99188.50;5033796;28;20041;-70
2022/09/07 06:57:13;;;;;;;4.82;1.60;;;;;;;14.27;48.35;99192.22;5044351;28;20045;-69
2022/09/07 06:59:40;;;;;;;3.92;2.00;;;;;;;14.31;48.70;99192.28;5040903;28;20054;-70
2022/09/07 07:02:10;;;;;;;5.88;1.67;;;;;;;14.39;48.31;99199.69;5035199;28;20139;-70
2022/09/07 07:04:37;;;;;;;4.72;1.40;;;;;;;14.26;48.36;99196.19;5035485;28;20048;-69
2022/09/07 07:07:11;;;;;;;6.70;1.58;;;;;;;14.33;48.02;99195.56;5035068;28;20107;-69
2022/09/07 07:09:39;;;;;;;3.97;1.40;;;;;;;14.43;47.72;99192.16;5035421;28;20045;-69
2022/09/07 07:12:06;;;;;;;9.00;2.00;;;;;;;14.35;47.96;99199.59;5035121;28;20489;-70
2022/09/07 07:14:35;;;;;;;2.75;1.65;;;;;;;14.41;47.13;99191.72;5034897;28;20386;-70
2022/09/07 07:17:11;;;;;;;2.67;1.60;;;;;;;14.37;47.02;99179.63;5034556;28;20046;-69
2022/09/07 07:19:38;;;;;;;;;;;;;;;14.25;47.50;99182.56;5035285;28;20143;-70
2022/09/07 07:22:05;;;;;;;3.42;1.70;;;;;;;14.25;47.29;99179.78;5043014;28;20427;-70
2022/09/07 07:24:52;;;;;;;3.10;1.80;;;;;;;14.41;47.10;99183.31;5040737;28;20577;-69
2022/09/07 07:27:20;;;;;;;4.72;1.60;;;;;;;14.42;47.48;99179.38;5055202;28;20063;-69
2022/09/07 07:29:47;;;;;;;2.53;1.40;;;;;;;14.03;48.24;99174.81;5040091;28;20048;-70
2022/09/07 07:32:14;;;;;;;4.55;1.65;;;;;;;13.70;48.90;99174.41;5034499;28;20041;-70
2022/09/07 07:34:41;;;;;;;2.50;1.40;;;;;;;13.37;49.47;99187.94;5039027;28;20049;-70
2022/09/07 07:37:08;;;;;;;7.85;1.80;;;;;;;13.25;49.71;99183.25;5048354;28;20049;-69
2022/09/07 07:39:35;;;;;;;3.63;1.58;;;;;;;13.36;49.37;99177.94;5038260;28;20056;-69
2022/09/07 07:42:22;;;;;;;2.42;1.42;;;;;;;13.91;48.39;99180.53;5033225;28;20077;-69
2022/09/07 07:44:49;;;;;;;2.00;1.20;;;;;;;14.51;46.92;99177.94;5034386;28;20092;-68
2022/09/07 07:47:36;;;;;;;3.05;1.45;;;;;;;14.68;46.80;99179.50;5034093;28;20073;-68
2022/09/07 07:50:05;;;;;;;8.80;1.48;;;;;;;14.56;46.39;99172.06;5034562;28;20449;-70
2022/09/07 07:52:52;;;;;;;3.38;1.42;;;;;;;14.31;46.80;99175.50;5044483;28;20148;-70
2022/09/07 07:55:39;;;;;;;3.30;1.50;;;;;;;14.24;47.05;99170.56;5053798;28;20059;-69
2022/09/07 07:58:11;;;;;;;2.20;1.25;;;;;;;14.04;47.46;99166.06;5038006;28;20053;-69
2022/09/07 08:00:39;;;;;;;5.53;1.40;;;;;;;14.07;47.34;99164.53;5035206;28;20080;-70
2022/09/07 08:03:21;;;;;;;2.30;1.50;;;;;;;14.36;46.75;99169.63;5033735;28;20472;-69
2022/09/07 08:05:48;;;;;;;3.95;1.52;;;;;;;14.39;46.17;99166.88;5034253;28;20071;-69
2022/09/07 08:08:15;;;;;;;5.22;2.85;;;;;;;14.19;47.00;99162.44;5053730;28;20049;-69
2022/09/07 08:10:42;;;;;;;2.22;1.30;;;;;;;14.91;45.10;99166.38;5034503;28;20120;-71
2022/09/07 08:13:09;;;;;;;2.85;1.52;;;;;;;15.94;42.90;99158.63;5033513;28;20543;-69
2022/09/07 08:15:43;;;;;;;6.78;1.60;;;;;;;16.91;40.90;99146.34;5034577;28;20049;-68
2022/09/07 08:18:11;;;;;;;3.22;1.70;;;;;;;18.17;38.69;99147.50;5038640;28;20500;-70
2022/09/07 08:20:41;;;;;;;4.68;1.73;;;;;;;19.14;37.08;99140.72;5038780;28;20495;-68
2022/09/07 08:23:07;;;;;;;;;;;;;;;19.54;37.04;99139.63;5035471;28;20148;-71
2022/09/07 08:25:34;;;;;;;4.43;1.35;;;;;;;19.04;37.54;99135.84;5044372;28;19970;-69
2022/09/07 08:28:03;;;;;;;6.75;2.28;;;;;;;18.21;38.31;99135.03;5040720;28;20256;-69
2022/09/07 08:30:30;;;;;;;2.70;1.63;;;;;;;18.86;37.65;99139.84;5031429;28;20064;-70
2022/09/07 08:32:56;;;;;;;4.45;2.53;;;;;;;21.88;32.69;99125.84;5039944;28;20042;-71
2022/09/07 08:35:23;;;;;;;5.20;3.17;;;;;;;23.00;30.90;99135.94;5044691;28;20052;-70
2022/09/07 08:37:51;;;;;;;7.07;2.90;;;;;;;22.22;31.26;99129.53;5038229;28;20049;-70
2022/09/07 08:40:19;;;;;;;3.20;1.50;;;;;;;20.31;33.05;99130.31;5034458;28;20053;-69
2022/09/07 08:43:02;;;;;;;3.92;1.85;;;;;;;19.52;33.90;99125.91;5043197;28;20053;-69
2022/09/07 08:45:48;;;;;;;7.65;1.45;;;;;;;20.77;32.29;99125.28;5042027;28;20049;-69
2022/09/07 08:48:19;;;;;;;3.80;1.58;;;;;;;23.14;29.28;99124.41;5033460;28;20052;-69
2022/09/07 08:50:55;;;;;;;3.70;1.77;;;;;;;26.53;24.63;99123.50;5037632;28;20041;-70
2022/09/07 08:53:24;;;;;;;5.30;1.75;;;;;;;25.62;25.40;99131.56;5033051;28;20053;-70
2022/09/07 08:56:00;;;;;;;1.80;0.98;;;;;;;23.97;26.36;99125.59;5069031;28;20079;-69
2022/09/07 08:58:42;;;;;;;2.67;1.27;;;;;;;23.82;27.15;99124.19;5038453;28;20045;-71
2022/09/07 09:01:21;;;;;;;4.65;1.00;;;;;;;22.99;27.07;99125.84;5033542;28;20060;-69
2022/09/07 09:04:23;;;;;;;4.70;1.10;;;;;;;21.19;28.69;99116.59;5048965;28;20044;-70
2022/09/07 09:07:34;;;;;;;3.20;1.77;;;;;;;19.34;31.21;99119.44;5038740;28;20132;-70
2022/09/07 09:10:24;;;;;;;2.00;1.20;;;;;;;17.76;33.64;99129.09;5058662;28;20052;-69
2022/09/07 09:12:57;;;;;;;1.85;1.17;;;;;;;16.84;35.43;99123.78;5034982;28;20442;-71
2022/09/07 09:15:44;;;;;;;2.83;1.50;;;;;;;16.43;35.95;99126.47;5037109;28;20037;-70
2022/09/07 09:18:33;;;;;;;6.45;1.63;;;;;;;16.31;36.09;99121.09;5027577;28;20465;-70
2022/09/07 09:21:00;;;;;;;3.45;1.67;;;;;;;18.93;32.34;99120.94;5027699;28;20045;-69
2022/09/07 09:23:36;;;;;;;5.88;1.60;;;;;;;20.22;29.85;99119.41;5027920;28;20117;-69
2022/09/07 09:26:24;;;;;;;5.35;2.10;;;;;;;21.35;28.26;99125.41;5028066;28;20041;-69
2022/09/07 09:28:52;;;;;;;3.42;1.70;;;;;;;19.45;30.67;99128.72;5031394;28;20122;-69
2022/09/07 09:31:25;;;;;;;4.40;1.73;;;;;;;17.76;33.38;99137.53;5027826;28;20420;-70
2022/09/07 09:34:04;;;;;;;2.60;1.40;;;;;;;16.96;34.55;99131.94;5029974;28;20049;-71
2022/09/07 09:36:39;;;;;;;7.97;1.67;;;;;;;19.00;31.73;99123.75;5024989;28;20102;-70
2022/09/07 09:39:25;;;;;;;2.47;1.33;;;;;;;18.49;32.05;99123.16;5033656;28;20041;-69
2022/09/07 09:41:54;;;;;;;13.20;1.73;;;;;;;17.53;33.93;99125.72;5041942;28;20135;-69
2022/09/07 09:44:22;;;;;;;3.43;2.00;;;;;;;17.22;34.37;99120.56;5046519;28;20102;-69
2022/09/07 09:46:53;;;;;;;2.83;1.70;;;;;;;17.23;34.47;99122.97;5048968;28;20288;-68
2022/09/07 09:49:40;;;;;;;3.80;1.67;;;;;;;17.13;34.65;99120.06;5049026;28;20559;-71
2022/09/07 09:52:18;;;;;;;2.85;1.60;;;;;;;17.49;34.03;99105.97;5050525;28;20041;-70
2022/09/07 09:55:06;;;;;;;2.42;1.15;;;;;;;17.40;34.51;99115.91;5048372;28;20511;-68
2022/09/07 09:57:59;;;;;;;1.98;1.23;;;;;;;16.97;35.23;99113.88;5035929;28;20139;-69
2022/09/07 10:00:55;;;;;;;2.13;1.20;;;;;;;16.81;35.08;99116.13;5042673;28;20697;-69
2022/09/07 10:03:42;;;;;;;2.20;1.20;;;;;;;16.46;35.80;99124.91;5041446;28;20136;-70
2022/09/07 10:06:29;;;;;;;1.50;0.90;;;;;;;16.39;36.20;99113.56;5032222;28;20054;-70
2022/09/07 10:08:57;;;;;;;2.15;0.90;;;;;;;16.30;36.12;99113.84;5041371;28;20500;-69
2022/09/07 10:11:44;;;;;;;5.90;1.15;;;;;;;16.04;36.79;99119.50;5036389;28;20132;-70
2022/09/07 10:14:35;;;;;;;1.85;0.85;;;;;;;15.68;37.43;99116.53;5033304;28;20046;-69
2022/09/07 10:17:24;;;;;;;3.55;1.33;;;;;;;15.56;37.51;99125.97;5040146;28;20432;-71
2022/09/07 10:19:51;;;;;;;6.18;1.00;;;;;;;15.52;37.71;99113.91;5052112;28;20049;-69
2022/09/07 10:22:23;;;;;;;2.60;1.00;;;;;;;15.36;38.39;99123.56;5050719;28;20060;-70
2022/09/07 10:24:51;;;;;;;2.28;1.10;;;;;;;15.03;38.68;99107.38;5049237;28;20045;-70
2022/09/07 10:27:27;;;;;;;3.78;1.17;;;;;;;15.01;39.43;99114.56;5037319;28;20045;-70
2022/09/07 10:29:55;;;;;;;3.22;1.52;;;;;;;14.84;39.79;99121.44;5042065;28;20045;-70
2022/09/07 10:32:24;;;;;;;4.10;1.90;;;;;;;14.50;41.07;99119.53;5041829;28;20483;-71
2022/09/07 10:35:06;;;;;;;2.50;1.40;;;;;;;14.34;41.84;99116.00;5040749;28;20041;-71
2022/09/07 10:37:58;;;;;;;2.38;1.20;;;;;;;14.65;41.84;99113.03;5045516;28;20061;-69
2022/09/07 10:40:50;;;;;;;25.25;10.25;;;;;;;15.07;42.14;99119.44;5044861;28;20045;-72
2022/09/07 10:43:38;;;;;;;2.45;1.40;;;;;;;15.14;42.26;99118.78;5040603;28;20049;-71
2022/09/07 10:46:13;;;;;;;1.98;1.05;;;;;;;14.84;43.27;99110.25;5044387;28;20404;-70
2022/09/07 10:49:32;;;;;;;5.95;1.40;;;;;;;14.26;44.41;99123.44;5041095;28;20053;-72
2022/09/07 10:52:16;;;;;;;3.30;1.17;;;;;;;14.02;45.05;99128.47;5037589;28;20084;-69
2022/09/07 10:54:58;;;;;;;1.90;1.05;;;;;;;13.80;45.73;99131.94;5041728;28;20089;-71
2022/09/07 10:57:32;;;;;;;1.35;0.90;;;;;;;13.54;46.26;99129.72;5032692;28;20405;-69
2022/09/07 11:00:11;;;;;;;2.13;1.05;;;;;;;13.30;46.85;99129.09;5041227;28;20045;-69
2022/09/07 11:02:57;;;;;;;2.17;1.20;;;;;;;13.26;47.27;99123.41;5036958;28;20052;-70
2022/09/07 11:06:01;;;;;;;2.38;1.10;;;;;;;13.30;47.43;99124.34;5042411;28;20291;-71
2022/09/07 11:08:57;;;;;;;2.00;1.10;;;;;;;13.23;48.36;99128.94;5041237;28;20408;-69
2022/09/07 11:11:49;;;;;;;3.78;1.52;;;;;;;13.20;48.73;99126.88;5042445;28;20103;-71
2022/09/07 11:14:45;;;;;;;3.55;1.35;;;;;;;13.19;49.23;99133.59;5047408;28;20049;-71
2022/09/07 11:17:25;;;;;;;2.65;1.35;;;;;;;13.06;50.17;99129.28;5052436;28;20049;-70
2022/09/07 11:20:16;;;;;;;3.05;1.60;;;;;;;12.83;50.78;99132.66;5054772;28;20049;-72
2022/09/07 11:22:56;;;;;;;2.47;1.20;;;;;;;12.61;51.47;99129.59;5054384;28;20110;-71
2022/09/07 11:25:34;;;;;;;3.58;1.17;;;;;;;12.45;52.43;99132.38;5053334;28;20156;-70
2022/09/07 11:28:11;;;;;;;2.22;0.90;;;;;;;12.35;52.21;99135.63;5054344;28;20049;-70
2022/09/07 11:30:47;;;;;;;2.58;1.10;;;;;;;12.27;52.92;99135.78;5054385;28;20064;-71
2022/09/07 11:33:21;;;;;;;3.20;1.10;;;;;;;12.10;53.13;99136.88;5054363;28;20052;-70
2022/09/07 11:36:14;;;;;;;7.60;1.70;;;;;;;12.07;53.62;99128.41;5054357;28;20048;-70
2022/09/07 11:38:58;;;;;;;3.83;1.45;;;;;;;12.05;53.86;99128.75;5053945;28;20144;-71
2022/09/07 11:41:45;;;;;;;2.53;1.17;;;;;;;12.13;54.19;99127.81;5053840;28;20581;-70
2022/09/07 11:44:24;;;;;;;2.95;1.10;;;;;;;12.20;54.50;99119.66;5054461;28;20388;-70
2022/09/07 11:47:03;;;;;;;2.10;1.20;;;;;;;12.20;54.61;99104.91;5054573;28;20045;-70
2022/09/07 11:49:29;;;;;;;6.38;1.20;;;;;;;12.16;54.90;99106.78;5034443;28;20073;-71
2022/09/07 11:52:09;;;;;;;2.78;0.98;;;;;;;12.13;55.14;99102.72;5034280;28;20049;-72
2022/09/07 11:54:56;;;;;;;3.85;1.20;;;;;;;12.09;55.82;99104.59;5034430;28;20056;-71
2022/09/07 11:57:53;;;;;;;1.90;1.02;;;;;;;12.05;55.75;99103.66;5034054;28;20049;-70
2022/09/07 12:00:46;;;;;;;3.53;1.10;;;;;;;11.97;55.85;99112.19;5034577;28;20081;-71
2022/09/07 12:03:34;;;;;;;4.47;1.15;;;;;;;11.91;56.24;99103.25;5032733;28;20049;-70
2022/09/07 12:06:23;;;;;;;2.42;1.17;;;;;;;11.82;56.60;99105.38;5033062;28;20056;-70
2022/09/07 12:08:58;;;;;;;4.93;1.20;;;;;;;11.74;56.97;99089.59;5034254;28;20041;-71
2022/09/07 12:11:39;;;;;;;2.67;1.20;;;;;;;11.65;57.37;99094.47;5033909;28;20112;-70